Plymouth, New Hampshire
Current Conditions -  °F | °C
As of 8:15 AM on Wednesday 22 Oct 2014 (Local Time) from K1P1 Reporting Station
Moderate Rain Moderate Rain  
Wind Chill: 48°   Ceiling: 2500
Heat Index: 48°   Visibility: 10mi
Dew Point: 48°   Wind: 0mph
Humidity: 100%   Direction: NA
Pressure: 30.13"   Gusts: NA
Location:  43.76°N, 71.69°W
Report Text: K1P1 221215Z AUTO 00000KT 10SM RA OVC025 09/09 A3013 RMK AO2 P0001 T00870087
Loading
Personal Weather Stations






























Interactive Weather Map
Tropical Storm Tracking
New forecast layout! Learn more

10-Day Weather Forecast

Advertisements
Track Severe Weather on mobile